createdAt,value
2019-03-05T00:02:02.042Z,98485.60
2019-03-05T00:04:31.417Z,98480.33
2019-03-05T00:07:00.796Z,98487.02
2019-03-05T00:09:30.164Z,98486.11
2019-03-05T00:11:59.526Z,98484.65
2019-03-05T00:14:29.234Z,98488.57
2019-03-05T00:16:58.597Z,98498.78
2019-03-05T00:19:27.981Z,98505.16
2019-03-05T00:21:57.363Z,98494.98
2019-03-05T00:25:06.228Z,98503.02
2019-03-05T00:27:38.151Z,98485.92
2019-03-05T00:30:19.902Z,98510.88
2019-03-05T00:33:00.369Z,98530.51
2019-03-05T00:35:58.505Z,98516.70
2019-03-05T00:38:55.029Z,98517.33
2019-03-05T00:42:00.656Z,98525.14
2019-03-05T00:44:52.302Z,98534.45
2019-03-05T00:47:40.761Z,98537.41
2019-03-05T00:50:44.033Z,98529.23
2019-03-05T00:53:38.560Z,98529.95
2019-03-05T00:56:21.581Z,98523.41
2019-03-05T01:02:08.159Z,98534.41
2019-03-05T01:04:46.916Z,98523.59
2019-03-05T01:07:16.345Z,98539.06
2019-03-05T01:09:45.808Z,98530.85
2019-03-05T01:12:15.425Z,98509.38
2019-03-05T01:14:44.955Z,98532.58
2019-03-05T01:17:15.350Z,98535.47
2019-03-05T01:19:44.691Z,98527.51
2019-03-05T01:22:15.606Z,98541.20
2019-03-05T01:24:45.361Z,98556.08
2019-03-05T01:27:14.810Z,98544.80
2019-03-05T01:29:45.833Z,98549.83
2019-03-05T01:32:34.833Z,98550.31
2019-03-05T01:35:08.584Z,98543.38
2019-03-05T01:37:37.914Z,98540.49
2019-03-05T01:40:11.005Z,98517.06
2019-03-05T01:42:40.566Z,98550.33
2019-03-05T01:45:13.008Z,98542.86
2019-03-05T01:47:42.393Z,98537.51
2019-03-05T01:50:12.732Z,98536.63
2019-03-05T01:52:42.119Z,98544.62
2019-03-05T01:55:11.749Z,98546.47
2019-03-05T01:57:41.114Z,98539.23
2019-03-05T02:00:12.608Z,98544.48
2019-03-05T02:02:41.970Z,98543.83
2019-03-05T02:05:11.471Z,98518.52
2019-03-05T02:07:40.873Z,98538.14
2019-03-05T02:10:18.378Z,98544.48
2019-03-05T02:12:47.738Z,98537.05
2019-03-05T02:15:17.522Z,98543.63
2019-03-05T02:17:47.210Z,98533.88
2019-03-05T02:20:21.017Z,98534.26
2019-03-05T02:23:13.057Z,98521.27
2019-03-05T02:26:04.796Z,98528.25
2019-03-05T02:28:44.637Z,98537.75
2019-03-05T02:31:36.288Z,98541.41
2019-03-05T02:34:28.199Z,98542.68
2019-03-05T02:37:11.428Z,98540.25
2019-03-05T02:39:57.469Z,98535.77
2019-03-05T02:43:04.891Z,98529.75
2019-03-05T02:45:54.211Z,98537.52
2019-03-05T02:48:52.431Z,98538.62
2019-03-05T02:51:35.023Z,98546.77
2019-03-05T02:54:23.812Z,98555.64
2019-03-05T02:57:08.819Z,98546.22
2019-03-05T02:59:38.337Z,98541.68
2019-03-05T03:02:13.537Z,98541.73
2019-03-05T03:04:56.964Z,98533.77
2019-03-05T03:07:26.371Z,98540.17
2019-03-05T03:10:15.334Z,98512.16
2019-03-05T03:12:44.978Z,98530.66
2019-03-05T03:15:14.757Z,98536.00
2019-03-05T03:17:45.632Z,98525.50
2019-03-05T03:20:17.060Z,98523.39
2019-03-05T03:22:46.983Z,98523.25
2019-03-05T03:25:18.021Z,98499.08
2019-03-05T03:27:47.422Z,98521.34
2019-03-05T03:30:20.305Z,98518.06
2019-03-05T03:32:49.730Z,98522.70
2019-03-05T03:35:19.237Z,98530.91
2019-03-05T03:37:48.605Z,98531.65
2019-03-05T03:40:20.203Z,98532.44
2019-03-05T03:42:49.908Z,98537.10
2019-03-05T03:45:21.545Z,98542.03
2019-03-05T03:47:53.025Z,98537.64
2019-03-05T03:50:22.437Z,98544.54
2019-03-05T03:52:52.248Z,98549.14
2019-03-05T03:55:22.214Z,98558.55
2019-03-05T03:57:51.619Z,98549.34
2019-03-05T04:00:22.819Z,98561.08
2019-03-05T04:02:52.391Z,98549.50
2019-03-05T04:05:21.829Z,98547.38
2019-03-05T04:07:51.313Z,98542.80
2019-03-05T04:10:20.799Z,98551.70
2019-03-05T04:12:50.199Z,98550.34
2019-03-05T04:15:20.219Z,98549.50
2019-03-05T04:17:49.687Z,98558.56
2019-03-05T04:20:25.609Z,98568.45
2019-03-05T04:22:54.941Z,98560.39
2019-03-05T04:25:24.335Z,98549.58
2019-03-05T04:27:53.726Z,98549.25
2019-03-05T04:30:23.399Z,98551.06
2019-03-05T04:32:53.136Z,98549.59
2019-03-05T04:35:22.561Z,98550.35
2019-03-05T04:37:51.934Z,98563.75
2019-03-05T04:40:24.050Z,98548.31
2019-03-05T04:42:53.482Z,98558.27
2019-03-05T04:45:44.145Z,98548.79
2019-03-05T04:48:14.435Z,98558.58
2019-03-05T04:50:48.682Z,98565.50
2019-03-05T04:53:18.068Z,98559.89
2019-03-05T04:55:47.489Z,98559.59
2019-03-05T04:58:16.862Z,98551.16
2019-03-05T05:00:46.279Z,98552.67
2019-03-05T05:03:16.106Z,98551.73
2019-03-05T05:05:45.564Z,98551.25
2019-03-05T05:08:14.964Z,98544.38
2019-03-05T05:10:44.764Z,98543.72
2019-03-05T05:13:14.749Z,98545.95
2019-03-05T05:15:44.980Z,98548.20
2019-03-05T05:18:15.782Z,98548.96
2019-03-05T05:20:45.252Z,98544.64
2019-03-05T05:23:14.823Z,98548.50
2019-03-05T05:25:48.118Z,98540.06
2019-03-05T05:28:17.749Z,98542.59
2019-03-05T05:30:47.400Z,98541.82
2019-03-05T05:33:16.754Z,98542.77
2019-03-05T05:35:46.162Z,98540.94
2019-03-05T05:38:15.536Z,98550.59
2019-03-05T05:40:47.458Z,98542.45
2019-03-05T05:43:29.931Z,98547.84
2019-03-05T05:45:59.398Z,98545.67
2019-03-05T05:48:28.965Z,98543.48
2019-03-05T05:50:58.328Z,98559.39
2019-03-05T05:53:27.695Z,98569.64
2019-03-05T05:55:57.177Z,98565.37
2019-03-05T05:58:26.663Z,98563.62
2019-03-05T06:00:57.687Z,98563.12
2019-03-05T06:03:27.173Z,98561.28
2019-03-05T06:05:56.850Z,98558.95
2019-03-05T06:08:26.318Z,98562.77
2019-03-05T06:10:55.851Z,98556.77
2019-03-05T06:13:25.322Z,98561.09
2019-03-05T06:15:54.731Z,98552.91
2019-03-05T06:18:24.145Z,98555.66
2019-03-05T06:20:53.950Z,98547.73
2019-03-05T06:23:24.208Z,98536.56
2019-03-05T06:25:53.752Z,98545.67
2019-03-05T06:28:35.165Z,98567.96
2019-03-05T06:31:06.279Z,98538.64
2019-03-05T06:33:35.706Z,98543.88
2019-03-05T06:36:06.261Z,98547.80
2019-03-05T06:38:41.746Z,98552.33
2019-03-05T06:41:11.593Z,98564.12
2019-03-05T06:43:41.222Z,98574.59
2019-03-05T06:46:11.873Z,98559.41
2019-03-05T06:48:44.089Z,98577.03
2019-03-05T06:51:13.607Z,98582.47
2019-03-05T06:53:44.663Z,98574.97
2019-03-05T06:56:14.722Z,98581.89
2019-03-05T06:58:47.285Z,98589.64
2019-03-05T07:01:16.969Z,98594.59
2019-03-05T07:03:46.484Z,98602.17
2019-03-05T07:06:52.631Z,98601.79
2019-03-05T07:10:03.664Z,98607.83
2019-03-05T07:12:43.998Z,98607.69
2019-03-05T07:15:52.213Z,98603.44
2019-03-05T07:18:34.851Z,98615.75
2019-03-05T07:21:37.755Z,98622.47
2019-03-05T07:24:46.014Z,98612.87
2019-03-05T07:27:25.538Z,98611.92
2019-03-05T07:29:58.586Z,98620.48
2019-03-05T07:32:27.940Z,98621.58
2019-03-05T07:35:17.917Z,98626.53
2019-03-05T07:37:48.954Z,98622.48
2019-03-05T07:40:18.491Z,98618.98
2019-03-05T07:42:48.063Z,98614.78
2019-03-05T07:45:18.438Z,98617.73
2019-03-05T07:47:47.882Z,98625.31
2019-03-05T07:50:22.700Z,98625.64
2019-03-05T07:52:52.361Z,98631.00
2019-03-05T07:55:21.824Z,98637.91
2019-03-05T07:57:51.232Z,98630.67
2019-03-05T08:00:23.141Z,98626.59
2019-03-05T08:02:53.243Z,98637.44
2019-03-05T08:05:22.800Z,98650.17
2019-03-05T08:07:52.230Z,98652.39
2019-03-05T08:10:29.105Z,98653.69
2019-03-05T08:13:18.122Z,98642.13
2019-03-05T08:16:17.760Z,98636.77
2019-03-05T08:18:47.174Z,98643.44
2019-03-05T08:21:17.808Z,98670.94
2019-03-05T08:23:48.455Z,98660.97
2019-03-05T08:26:22.067Z,98666.30
2019-03-05T08:28:51.466Z,98676.88
2019-03-05T08:31:21.083Z,98667.95
2019-03-05T08:33:50.584Z,98646.47
2019-03-05T08:36:21.463Z,98678.31
2019-03-05T08:38:50.896Z,98682.27
2019-03-05T08:41:20.645Z,98691.97
2019-03-05T08:43:54.356Z,98697.80
2019-03-05T08:46:23.847Z,98693.15
2019-03-05T08:48:53.333Z,98698.19
2019-03-05T08:51:23.133Z,98699.36
2019-03-05T08:54:00.916Z,98706.01
2019-03-05T08:56:30.542Z,98713.56
2019-03-05T08:59:00.529Z,98709.83
2019-03-05T09:01:30.077Z,98716.31
2019-03-05T09:03:59.667Z,98720.79
2019-03-05T09:06:31.705Z,98712.41
2019-03-05T09:09:23.659Z,98723.84
2019-03-05T09:11:53.914Z,98713.83
2019-03-05T09:14:23.452Z,98724.88
2019-03-05T09:16:52.963Z,98720.39
2019-03-05T09:19:22.555Z,98715.53
2019-03-05T09:21:53.946Z,98720.95
2019-03-05T09:24:23.480Z,98718.33
2019-03-05T09:26:54.714Z,98720.92
2019-03-05T09:29:24.409Z,98727.56
2019-03-05T09:31:55.683Z,98733.63
2019-03-05T09:34:25.363Z,98735.78
2019-03-05T09:36:54.897Z,98742.09
2019-03-05T09:39:24.359Z,98735.10
2019-03-05T09:41:54.079Z,98749.77
2019-03-05T09:44:23.707Z,98756.19
2019-03-05T09:46:53.680Z,98755.42
2019-03-05T09:49:23.204Z,98757.61
2019-03-05T09:51:52.681Z,98755.85
2019-03-05T09:54:22.119Z,98760.25
2019-03-05T09:56:51.790Z,98754.74
2019-03-05T09:59:23.420Z,98760.67
2019-03-05T10:01:54.584Z,98757.28
2019-03-05T10:04:25.810Z,98752.22
2019-03-05T10:06:55.643Z,98759.13
2019-03-05T10:09:26.066Z,98757.28
2019-03-05T10:11:56.729Z,98762.08
2019-03-05T10:14:26.497Z,98767.82
2019-03-05T10:16:55.943Z,98766.00
2019-03-05T10:19:25.428Z,98766.95
2019-03-05T10:21:54.867Z,98771.39
2019-03-05T10:24:24.419Z,98773.87
2019-03-05T10:26:53.878Z,98777.78
2019-03-05T10:29:23.387Z,98778.20
2019-03-05T10:31:52.883Z,98774.59
2019-03-05T10:34:22.382Z,98769.79
2019-03-05T10:36:52.139Z,98772.88
2019-03-05T10:39:30.361Z,98778.17
2019-03-05T10:41:56.443Z,98772.22
2019-03-05T10:44:26.071Z,98771.97
2019-03-05T10:46:56.241Z,98779.16
2019-03-05T10:49:26.081Z,98776.75
2019-03-05T10:51:55.662Z,98773.27
2019-03-05T10:54:25.216Z,98774.52
2019-03-05T10:56:54.666Z,98777.69
2019-03-05T10:59:24.220Z,98774.20
2019-03-05T11:01:53.764Z,98779.68
2019-03-05T11:04:23.247Z,98782.69
2019-03-05T11:06:52.935Z,98786.67
2019-03-05T11:09:23.485Z,98785.91
2019-03-05T11:11:52.955Z,98779.72
2019-03-05T11:14:22.578Z,98778.89
2019-03-05T11:16:52.440Z,98780.89
2019-03-05T11:19:22.194Z,98772.25
2019-03-05T11:21:51.855Z,98776.72
2019-03-05T11:24:21.264Z,98777.33
2019-03-05T11:26:54.411Z,98770.22
2019-03-05T11:29:24.107Z,98790.83
2019-03-05T11:31:53.714Z,98776.13
2019-03-05T11:34:23.368Z,98774.59
2019-03-05T11:36:52.846Z,98783.86
2019-03-05T11:39:22.511Z,98790.91
2019-03-05T11:41:52.198Z,98789.28
2019-03-05T11:44:21.805Z,98795.76
2019-03-05T11:46:51.925Z,98798.45
2019-03-05T11:49:21.770Z,98801.50
2019-03-05T11:51:51.368Z,98803.94
2019-03-05T11:54:20.927Z,98797.25
2019-03-05T11:56:50.735Z,98793.45
2019-03-05T11:59:20.529Z,98810.53
2019-03-05T12:01:50.164Z,98815.03
2019-03-05T12:04:21.231Z,98809.64
2019-03-05T12:06:51.009Z,98816.14
2019-03-05T12:09:20.672Z,98818.30
2019-03-05T12:11:51.683Z,98830.17
2019-03-05T12:14:22.576Z,98822.01
2019-03-05T12:16:53.781Z,98829.95
2019-03-05T12:19:23.243Z,98820.58
2019-03-05T12:21:56.714Z,98826.78
2019-03-05T12:24:28.041Z,98834.97
2019-03-05T12:26:57.526Z,98834.28
2019-03-05T12:29:27.006Z,98833.13
2019-03-05T12:31:59.975Z,98832.95
2019-03-05T12:34:29.498Z,98828.86
2019-03-05T12:37:02.164Z,98833.86
2019-03-05T12:39:31.704Z,98838.45
2019-03-05T12:42:03.549Z,98835.59
2019-03-05T12:44:32.334Z,98832.12
2019-03-05T12:47:03.019Z,98844.52
2019-03-05T12:49:32.383Z,98839.12
2019-03-05T12:52:01.760Z,98841.86
2019-03-05T12:54:31.150Z,98830.39
2019-03-05T12:57:00.510Z,98843.27
2019-03-05T12:59:29.898Z,98845.61
2019-03-05T13:01:59.286Z,98849.85
2019-03-05T13:04:28.639Z,98847.28
2019-03-05T13:06:58.077Z,98842.63
2019-03-05T13:09:27.448Z,98850.14
2019-03-05T13:11:56.830Z,98851.77
2019-03-05T13:14:26.201Z,98844.06
2019-03-05T13:16:55.678Z,98857.03
2019-03-05T13:19:25.242Z,98866.91
2019-03-05T13:21:55.744Z,98862.60
2019-03-05T13:24:27.672Z,98866.52
2019-03-05T13:27:00.202Z,98865.78
2019-03-05T13:29:29.734Z,98870.03
2019-03-05T13:31:59.221Z,98866.58
2019-03-05T13:34:28.710Z,98875.48
2019-03-05T13:37:00.890Z,98881.77
2019-03-05T13:39:32.346Z,98886.58
2019-03-05T13:42:02.172Z,98888.39
2019-03-05T13:44:33.997Z,98878.49
2019-03-05T13:47:05.733Z,98871.94
2019-03-05T13:49:58.798Z,98877.17
2019-03-05T13:52:59.983Z,98885.36
2019-03-05T13:56:03.939Z,98892.68
2019-03-05T13:59:19.268Z,98903.77
2019-03-05T14:01:48.648Z,98899.33
2019-03-05T14:04:47.295Z,98898.59
2019-03-05T14:08:02.290Z,98898.09
2019-03-05T14:10:32.567Z,98895.11
2019-03-05T14:13:02.636Z,98910.80
2019-03-05T14:15:33.645Z,98912.45
2019-03-05T14:18:03.157Z,98907.52
2019-03-05T14:20:35.189Z,98911.11
2019-03-05T14:23:04.943Z,98915.66
2019-03-05T14:25:34.288Z,98909.14
2019-03-05T14:28:03.659Z,98912.48
2019-03-05T14:30:33.871Z,98914.40
2019-03-05T14:33:03.738Z,98912.88
2019-03-05T14:35:37.602Z,98911.45
2019-03-05T14:38:07.210Z,98914.95
2019-03-05T14:40:39.809Z,98911.27
2019-03-05T14:43:11.383Z,98911.72
2019-03-05T14:45:40.879Z,98919.19
2019-03-05T14:48:11.000Z,98921.36
2019-03-05T14:50:40.758Z,98918.47
2019-03-05T14:53:11.984Z,98914.52
2019-03-05T14:55:41.387Z,98916.17
2019-03-05T14:58:10.777Z,98911.46
2019-03-05T15:00:41.203Z,98908.29
2019-03-05T15:03:10.833Z,98912.56
2019-03-05T15:05:40.275Z,98919.16
2019-03-05T15:08:09.893Z,98910.69
2019-03-05T15:10:40.120Z,98913.25
2019-03-05T15:13:15.732Z,98910.44
2019-03-05T15:15:41.508Z,98917.33
2019-03-05T15:18:10.893Z,98916.16
2019-03-05T15:20:40.334Z,98921.41
2019-03-05T15:23:09.681Z,98933.44
2019-03-05T15:25:39.074Z,98929.88
2019-03-05T15:28:08.477Z,98943.50
2019-03-05T15:30:37.943Z,98930.92
2019-03-05T15:33:07.321Z,98944.13
2019-03-05T15:35:36.666Z,98943.21
2019-03-05T15:38:06.039Z,98944.88
2019-03-05T15:40:35.460Z,98942.14
2019-03-05T15:43:04.820Z,98944.50
2019-03-05T15:45:34.267Z,98941.45
2019-03-05T15:48:03.610Z,98940.03
2019-03-05T15:50:33.093Z,98946.97
2019-03-05T15:53:02.785Z,98945.89
2019-03-05T15:55:32.193Z,98942.05
2019-03-05T15:58:01.571Z,98942.38
2019-03-05T16:00:32.080Z,98947.25
2019-03-05T16:03:02.113Z,98955.19
2019-03-05T16:05:31.699Z,98952.97
2019-03-05T16:08:01.543Z,98964.00
2019-03-05T16:10:31.040Z,98972.00
2019-03-05T16:13:00.403Z,98971.98
2019-03-05T16:15:30.162Z,98974.70
2019-03-05T16:18:01.298Z,98976.96
2019-03-05T16:20:31.238Z,98974.94
2019-03-05T16:23:00.605Z,98976.69
2019-03-05T16:25:30.075Z,98977.11
2019-03-05T16:28:02.378Z,98973.19
2019-03-05T16:30:45.102Z,98975.72
2019-03-05T16:33:25.259Z,98985.66
2019-03-05T16:36:13.196Z,98979.47
2019-03-05T16:39:07.264Z,98976.23
2019-03-05T16:41:53.362Z,98980.31
2019-03-05T16:44:36.000Z,98985.69
2019-03-05T16:47:23.940Z,98987.61
2019-03-05T16:50:00.315Z,98989.69
2019-03-05T16:52:31.116Z,98989.69
2019-03-05T16:55:04.890Z,99000.08
2019-03-05T16:58:02.697Z,99000.98
2019-03-05T17:03:26.382Z,99006.68
2019-03-05T17:06:12.988Z,99004.64
2019-03-05T17:08:54.115Z,99017.68
2019-03-05T17:11:35.322Z,99021.48
2019-03-05T17:14:06.067Z,99009.78
2019-03-05T17:16:35.792Z,99018.86
2019-03-05T17:19:29.739Z,99021.33
2019-03-05T17:21:52.964Z,99027.17
2019-03-05T17:24:23.143Z,99022.52
2019-03-05T17:27:10.681Z,99041.27
2019-03-05T17:30:38.772Z,99037.52
2019-03-05T17:34:28.308Z,99049.40
2019-03-05T17:36:26.628Z,99057.86
2019-03-05T17:42:45.058Z,99062.81
2019-03-05T17:48:47.090Z,99077.09
2019-03-05T17:51:43.376Z,99088.17
2019-03-05T17:54:13.065Z,99084.95
2019-03-05T17:56:45.406Z,99078.58
2019-03-05T17:59:17.307Z,99084.69
2019-03-05T18:02:31.089Z,99090.16
2019-03-05T18:04:34.561Z,99088.19
2019-03-05T18:07:16.984Z,99095.20
2019-03-05T18:10:03.017Z,99099.00
2019-03-05T18:12:46.780Z,99097.87
2019-03-05T18:15:19.244Z,99097.28
2019-03-05T18:17:50.474Z,99095.18
2019-03-05T18:20:25.977Z,99104.46
2019-03-05T18:23:07.344Z,99109.00
2019-03-05T18:25:38.403Z,99110.88
2019-03-05T18:28:19.101Z,99107.09
2019-03-05T18:30:51.776Z,99114.93
2019-03-05T18:33:25.698Z,99119.02
2019-03-05T18:35:58.077Z,99114.78
2019-03-05T18:40:04.571Z,99115.94
2019-03-05T18:41:35.075Z,99117.13
2019-03-05T18:44:07.736Z,99119.84
2019-03-05T18:46:38.041Z,99118.38
2019-03-05T18:49:16.494Z,99112.56
2019-03-05T18:51:56.136Z,99112.58
2019-03-05T18:54:26.509Z,99112.72
2019-03-05T19:00:20.743Z,99120.30
2019-03-05T19:03:12.776Z,99128.92
2019-03-05T19:05:57.054Z,99122.79
2019-03-05T19:08:52.238Z,99120.45
2019-03-05T19:11:47.615Z,99123.02
2019-03-05T19:21:01.064Z,99122.89
2019-03-05T19:23:53.365Z,99119.95
2019-03-05T19:30:03.439Z,99134.80
2019-03-05T19:32:51.266Z,99132.69
2019-03-05T19:38:03.115Z,99132.41
2019-03-05T19:40:44.777Z,99125.14
2019-03-05T19:43:14.360Z,99128.30
2019-03-05T19:45:45.644Z,99130.44
2019-03-05T19:48:15.290Z,99135.12
2019-03-05T19:50:44.841Z,99132.66
2019-03-05T19:53:14.207Z,99129.91
2019-03-05T19:55:43.909Z,99125.81
2019-03-05T19:58:14.104Z,99121.89
2019-03-05T20:01:01.395Z,99123.04
2019-03-05T20:03:30.763Z,99128.86
2019-03-05T20:06:00.436Z,99122.47
2019-03-05T20:08:39.187Z,99120.61
2019-03-05T20:11:01.580Z,99122.96
2019-03-05T20:13:31.328Z,99117.88
2019-03-05T20:16:00.700Z,99122.13
2019-03-05T20:18:30.067Z,99121.12
2019-03-05T20:20:59.445Z,99120.81
2019-03-05T20:23:28.882Z,99117.75
2019-03-05T20:25:58.817Z,99120.94
2019-03-05T20:28:29.010Z,99111.73
2019-03-05T20:30:58.537Z,99106.44
2019-03-05T20:33:27.980Z,99107.66
2019-03-05T20:36:01.218Z,99106.27
2019-03-05T20:38:35.450Z,99115.53
2019-03-05T20:41:05.217Z,99106.25
2019-03-05T20:43:36.446Z,99112.77
2019-03-05T20:46:19.410Z,99109.75
2019-03-05T20:48:48.900Z,99107.89
2019-03-05T20:51:23.508Z,99108.34
2019-03-05T20:53:54.715Z,99110.27
2019-03-05T20:56:24.144Z,99111.05
2019-03-05T20:58:53.829Z,99109.56
2019-03-05T21:01:23.413Z,99109.53
2019-03-05T21:03:56.140Z,99100.13
2019-03-05T21:06:25.641Z,99102.80
2019-03-05T21:08:55.325Z,99101.78
2019-03-05T21:11:24.854Z,99106.63
2019-03-05T21:13:54.661Z,99104.16
2019-03-05T21:16:24.343Z,99109.65
2019-03-05T21:18:53.747Z,99103.96
2019-03-05T21:21:23.328Z,99097.38
2019-03-05T21:23:53.411Z,99099.47
2019-03-05T21:26:23.011Z,99098.55
2019-03-05T21:28:53.466Z,99098.56
2019-03-05T21:31:23.003Z,99097.10
2019-03-05T21:33:57.302Z,99105.50
2019-03-05T21:36:28.715Z,99101.95
2019-03-05T21:38:59.659Z,99098.95
2019-03-05T21:41:29.128Z,99101.64
2019-03-05T21:43:58.542Z,99100.52
2019-03-05T21:46:27.917Z,99096.60
2019-03-05T21:48:57.575Z,99100.42
2019-03-05T21:51:27.209Z,99102.88
2019-03-05T21:53:56.680Z,99103.97
2019-03-05T21:56:26.129Z,99103.66
2019-03-05T21:58:55.543Z,99097.25
2019-03-05T22:01:25.970Z,99096.88
2019-03-05T22:03:55.429Z,99101.98
2019-03-05T22:06:26.342Z,99091.38
2019-03-05T22:08:55.759Z,99087.89
2019-03-05T22:11:25.108Z,99090.75
2019-03-05T22:13:54.771Z,99085.84
2019-03-05T22:16:24.459Z,99082.45
2019-03-05T22:18:55.963Z,99083.64
2019-03-05T22:21:25.561Z,99082.12
2019-03-05T22:23:55.440Z,99082.33
2019-03-05T22:26:25.304Z,99080.16
2019-03-05T22:28:55.012Z,99078.17
2019-03-05T22:31:26.819Z,99076.95
2019-03-05T22:33:55.780Z,99072.21
2019-03-05T22:36:25.215Z,99069.33
2019-03-05T22:38:55.212Z,99075.67
2019-03-05T22:41:24.904Z,99075.56
2019-03-05T22:43:54.356Z,99068.58
2019-03-05T22:46:24.824Z,99067.49
2019-03-05T22:48:54.600Z,99066.30
2019-03-05T22:51:25.076Z,99063.84
2019-03-05T22:53:54.564Z,99063.61
2019-03-05T22:56:25.586Z,99061.55
2019-03-05T22:58:55.089Z,99058.64
2019-03-05T23:01:29.259Z,99064.52
2019-03-05T23:03:58.747Z,99063.51
2019-03-05T23:06:28.513Z,99061.19
2019-03-05T23:08:58.143Z,99059.56
2019-03-05T23:11:28.264Z,99060.39
2019-03-05T23:13:57.924Z,99060.91
2019-03-05T23:16:27.425Z,99061.59
2019-03-05T23:18:56.778Z,99058.69
2019-03-05T23:21:26.231Z,99054.49
2019-03-05T23:23:56.095Z,99050.13
2019-03-05T23:26:25.468Z,99042.98
2019-03-05T23:28:54.877Z,99046.44
2019-03-05T23:31:24.533Z,99045.82
2019-03-05T23:33:54.165Z,99037.24
2019-03-05T23:36:24.756Z,99037.22
2019-03-05T23:38:54.167Z,99036.78
2019-03-05T23:41:23.614Z,99030.35
2019-03-05T23:43:53.111Z,99031.43
2019-03-05T23:46:22.660Z,99023.96
2019-03-05T23:48:52.043Z,99026.34
2019-03-05T23:51:21.519Z,99024.95
2019-03-05T23:53:50.915Z,99018.18
2019-03-05T23:56:20.305Z,99023.73
2019-03-05T23:58:49.979Z,99020.03
